SELZM ENAL-ENAL

Flight info

Callsign SELZM
Flight time N/A
Altitude 2000
Route RORVIK
Aircraft C172/L-SBGY/S

Departure

Time 2026-05-08 13:40
Airport Ålesund Airport (ENAL)

Arrival

Time N/A
Airport Ålesund Airport (ENAL)
Time Latitude Longitude Altitude Speed Heading
2026-05-08 13:38 62.55899 6.11151 71 ft 11 kts 64°
2026-05-08 13:38 62.55938 6.11332 70 ft 14 kts 66°
2026-05-08 13:39 62.56006 6.11422 71 ft 9 kts 22°
2026-05-08 13:39 62.56046 6.11393 71 ft 9 kts 334°
2026-05-08 13:39 62.56099 6.11307 72 ft 8 kts 254°
2026-05-08 13:39 62.56028 6.10980 71 ft 50 kts 243°
2026-05-08 13:40 62.55832 6.10055 121 ft 80 kts 237°
2026-05-08 13:40 62.55575 6.08920 317 ft 82 kts 239°
2026-05-08 13:40 62.55545 6.07755 516 ft 85 kts 291°
2026-05-08 13:40 62.56035 6.07087 735 ft 87 kts 354°
2026-05-08 13:41 62.56612 6.07509 900 ft 90 kts 40°
2026-05-08 13:41 62.56995 6.08576 1034 ft 92 kts 62°
2026-05-08 13:41 62.57331 6.09827 1104 ft 98 kts 66°
2026-05-08 13:41 62.57645 6.11189 1118 ft 102 kts 69°
2026-05-08 13:42 62.57913 6.12517 993 ft 92 kts 72°
2026-05-08 13:42 62.58045 6.13812 811 ft 83 kts 101°
2026-05-08 13:42 62.57807 6.14839 604 ft 76 kts 153°
2026-05-08 13:42 62.57332 6.15089 426 ft 69 kts 192°
2026-05-08 13:43 62.56931 6.14665 297 ft 62 kts 221°
2026-05-08 13:43 62.56676 6.13926 197 ft 62 kts 233°
2026-05-08 13:43 62.56468 6.13023 131 ft 70 kts 243°
2026-05-08 13:43 62.56267 6.12079 68 ft 60 kts 242°
2026-05-08 13:44 62.56099 6.11319 108 ft 63 kts 243°
2026-05-08 13:44 62.55884 6.10367 242 ft 76 kts 242°
2026-05-08 13:44 62.55632 6.09355 433 ft 80 kts 236°
2026-05-08 13:44 62.55362 6.08275 632 ft 82 kts 236°
2026-05-08 13:45 62.55094 6.07158 819 ft 84 kts 237°
2026-05-08 13:45 62.54941 6.05933 1013 ft 90 kts 270°
2026-05-08 13:45 62.55251 6.04731 1209 ft 98 kts 315°
2026-05-08 13:45 62.55912 6.04228 1331 ft 108 kts 359°
2026-05-08 13:46 62.56597 6.04810 1483 ft 109 kts 44°
2026-05-08 13:46 62.57081 6.06037 1647 ft 106 kts 62°
2026-05-08 13:46 62.57429 6.07444 1802 ft 106 kts 68°
2026-05-08 13:46 62.57758 6.08881 1946 ft 107 kts 68°
2026-05-08 13:47 62.58092 6.10341 2087 ft 109 kts 68°
2026-05-08 13:47 62.58436 6.11848 2196 ft 112 kts 68°
2026-05-08 13:47 62.58781 6.13354 2318 ft 112 kts 68°
2026-05-08 13:47 62.59133 6.14863 2437 ft 112 kts 68°
2026-05-08 13:48 62.59489 6.16383 2554 ft 113 kts 68°
2026-05-08 13:48 62.59847 6.17916 2605 ft 116 kts 68°
2026-05-08 13:48 62.60214 6.19484 2656 ft 117 kts 68°
2026-05-08 13:48 62.60584 6.21066 2705 ft 117 kts 68°
2026-05-08 13:49 62.60953 6.22636 2754 ft 118 kts 68°
2026-05-08 13:49 62.61367 6.24170 2807 ft 120 kts 56°
2026-05-08 13:49 62.61919 6.25568 2857 ft 121 kts 53°
2026-05-08 13:49 62.62531 6.26809 2904 ft 121 kts 44°
2026-05-08 13:50 62.63181 6.27968 2913 ft 122 kts 43°
2026-05-08 13:50 62.63851 6.29147 2921 ft 122 kts 43°
2026-05-08 13:50 62.64461 6.30397 2936 ft 119 kts 59°
2026-05-08 13:50 62.64848 6.31927 2942 ft 114 kts 84°
2026-05-08 13:51 62.64693 6.33515 2953 ft 105 kts 131°
2026-05-08 13:51 62.64117 6.34399 2966 ft 102 kts 155°
2026-05-08 13:51 62.63436 6.34805 2961 ft 103 kts 185°
2026-05-08 13:51 62.62803 6.34084 2964 ft 106 kts 214°
2026-05-08 13:52 62.62262 6.33038 2929 ft 101 kts 218°
2026-05-08 13:52 62.61744 6.31993 2805 ft 103 kts 219°
2026-05-08 13:52 62.61224 6.30940 2635 ft 103 kts 219°
2026-05-08 13:52 62.60692 6.29876 2407 ft 104 kts 219°
2026-05-08 13:53 62.60176 6.28806 2165 ft 105 kts 226°
2026-05-08 13:53 62.59740 6.27519 1926 ft 106 kts 235°
2026-05-08 13:53 62.59369 6.26119 1692 ft 106 kts 239°
2026-05-08 13:53 62.59037 6.24696 1452 ft 106 kts 241°
2026-05-08 13:54 62.58717 6.23262 1241 ft 106 kts 242°
2026-05-08 13:54 62.58405 6.21830 1047 ft 105 kts 241°
2026-05-08 13:54 62.58095 6.20412 884 ft 102 kts 241°
2026-05-08 13:54 62.57796 6.19044 740 ft 100 kts 241°
2026-05-08 13:55 62.57501 6.17701 605 ft 97 kts 242°
2026-05-08 13:55 62.57217 6.16399 472 ft 91 kts 241°
2026-05-08 13:55 62.56752 6.14268 261 ft 69 kts 239°
2026-05-08 13:56 62.56674 6.13913 229 ft 67 kts 241°
2026-05-08 13:56 62.56472 6.13018 109 ft 67 kts 239°
2026-05-08 13:56 62.56287 6.12166 60 ft 55 kts 243°
2026-05-08 13:56 62.56108 6.11330 114 ft 72 kts 242°
2026-05-08 13:57 62.55872 6.10325 303 ft 75 kts 224°
2026-05-08 13:57 62.55419 6.09914 545 ft 74 kts 177°
2026-05-08 13:57 62.54975 6.10473 765 ft 81 kts 129°
2026-05-08 13:57 62.54872 6.11633 1012 ft 83 kts 81°
2026-05-08 13:58 62.55100 6.12917 1087 ft 101 kts 68°
2026-05-08 13:58 62.55413 6.14398 1090 ft 111 kts 69°
2026-05-08 13:58 62.55745 6.15920 1086 ft 113 kts 68°
2026-05-08 13:58 62.56081 6.17471 1085 ft 115 kts 68°
2026-05-08 13:59 62.56425 6.19050 1086 ft 115 kts 68°
2026-05-08 13:59 62.56766 6.20617 1086 ft 115 kts 68°
2026-05-08 13:59 62.57161 6.22109 1082 ft 116 kts 47°
2026-05-08 13:59 62.57839 6.22797 1067 ft 105 kts
2026-05-08 14:00 62.58498 6.22407 1037 ft 96 kts 319°
2026-05-08 14:00 62.58853 6.21250 952 ft 93 kts 276°
2026-05-08 14:00 62.58751 6.19938 868 ft 89 kts 233°
2026-05-08 14:00 62.58268 6.19139 767 ft 86 kts 204°
2026-05-08 14:01 62.57736 6.18596 672 ft 82 kts 219°
2026-05-08 14:01 62.57459 6.17596 583 ft 74 kts 242°
2026-05-08 14:01 62.57258 6.16615 492 ft 67 kts 243°
2026-05-08 14:01 62.57071 6.15737 404 ft 63 kts 239°
2026-05-08 14:02 62.56887 6.14901 323 ft 60 kts 239°
2026-05-08 14:02 62.56707 6.14083 249 ft 58 kts 239°
2026-05-08 14:02 62.56532 6.13288 170 ft 59 kts 239°
2026-05-08 14:02 62.56354 6.12484 89 ft 59 kts 240°
2026-05-08 14:03 62.56206 6.11796 67 ft 50 kts 244°
2026-05-08 14:03 62.56004 6.10856 93 ft 82 kts 246°
2026-05-08 14:03 62.55752 6.09632 208 ft 90 kts 249°
2026-05-08 14:03 62.55808 6.08326 427 ft 93 kts 291°
2026-05-08 14:04 62.56300 6.07423 653 ft 97 kts 337°
2026-05-08 14:04 62.56963 6.07360 883 ft 96 kts
2026-05-08 14:04 62.57619 6.07702 1054 ft 101 kts 28°
2026-05-08 14:04 62.58111 6.08848 1089 ft 107 kts 64°
2026-05-08 14:05 62.58451 6.10315 1105 ft 110 kts 68°
2026-05-08 14:05 62.58783 6.11837 1086 ft 113 kts 68°
2026-05-08 14:05 62.59110 6.13382 1086 ft 113 kts 69°
2026-05-08 14:05 62.59443 6.14928 1085 ft 112 kts 68°
2026-05-08 14:06 62.59758 6.16476 1090 ft 110 kts 78°
2026-05-08 14:06 62.59675 6.18061 1071 ft 106 kts 120°
2026-05-08 14:06 62.59168 6.19198 962 ft 105 kts 158°
2026-05-08 14:06 62.58480 6.19244 905 ft 99 kts 200°
2026-05-08 14:07 62.57926 6.18369 798 ft 101 kts 224°
2026-05-08 14:07 62.57481 6.17198 615 ft 102 kts 232°
2026-05-08 14:07 62.57111 6.15883 428 ft 104 kts 241°
2026-05-08 14:07 62.56797 6.14509 275 ft 91 kts 243°
2026-05-08 14:08 62.56562 6.13428 195 ft 71 kts 242°
2026-05-08 14:08 62.56364 6.12526 70 ft 63 kts 242°
2026-05-08 14:08 62.56195 6.11766 70 ft 60 kts 242°
2026-05-08 14:08 62.56015 6.10844 215 ft 72 kts 243°
2026-05-08 14:09 62.55654 6.10057 359 ft 81 kts 209°
2026-05-08 14:09 62.55087 6.09578 448 ft 93 kts 189°
2026-05-08 14:09 62.54426 6.09468 592 ft 96 kts 184°
2026-05-08 14:09 62.53760 6.09408 745 ft 96 kts 184°
2026-05-08 14:10 62.53096 6.09352 898 ft 96 kts 184°
2026-05-08 14:10 62.52425 6.09274 1049 ft 96 kts 188°
2026-05-08 14:10 62.51768 6.08979 1201 ft 96 kts 193°
2026-05-08 14:10 62.51121 6.08645 1344 ft 96 kts 194°
2026-05-08 14:11 62.50466 6.08311 1468 ft 98 kts 194°
2026-05-08 14:11 62.49790 6.07967 1556 ft 101 kts 194°
2026-05-08 14:11 62.49096 6.07606 1662 ft 101 kts 193°
2026-05-08 14:11 62.48412 6.07238 1750 ft 103 kts 194°
2026-05-08 14:12 62.47728 6.06868 1872 ft 100 kts 193°
2026-05-08 14:12 62.47044 6.06471 1956 ft 102 kts 195°
2026-05-08 14:12 62.46346 6.06078 1984 ft 106 kts 194°
2026-05-08 14:12 62.45625 6.05671 1984 ft 107 kts 193°
2026-05-08 14:13 62.44910 6.05268 1998 ft 106 kts 193°
2026-05-08 14:13 62.44231 6.04882 2124 ft 97 kts 194°
2026-05-08 14:13 62.43586 6.04517 2247 ft 93 kts 193°
2026-05-08 14:13 62.42974 6.04144 2358 ft 91 kts 193°
2026-05-08 14:14 62.42360 6.03773 2435 ft 92 kts 194°
2026-05-08 14:14 62.41754 6.03425 2545 ft 90 kts 193°
2026-05-08 14:14 62.41145 6.03058 2629 ft 91 kts 194°
2026-05-08 14:14 62.40550 6.02700 2795 ft 83 kts 193°
2026-05-08 14:15 62.40009 6.02355 2939 ft 80 kts 193°
2026-05-08 14:15 62.39486 6.02004 3069 ft 80 kts 193°
2026-05-08 14:15 62.38952 6.01641 3186 ft 80 kts 193°
2026-05-08 14:15 62.38423 6.01279 3310 ft 79 kts 194°
2026-05-08 14:16 62.37897 6.00920 3449 ft 80 kts 193°
2026-05-08 14:16 62.37370 6.00562 3589 ft 80 kts 193°
2026-05-08 14:16 62.36842 6.00201 3722 ft 79 kts 193°
2026-05-08 14:16 62.36316 5.99844 3833 ft 80 kts 194°
2026-05-08 14:17 62.35794 5.99493 3961 ft 78 kts 193°
2026-05-08 14:17 62.35280 5.99141 4085 ft 77 kts 193°
2026-05-08 14:17 62.34769 5.98787 4162 ft 81 kts 193°
2026-05-08 14:17 62.34210 5.98405 4211 ft 86 kts 194°
2026-05-08 14:18 62.33638 5.98018 4285 ft 86 kts 194°
2026-05-08 14:18 62.33051 5.97626 4307 ft 91 kts 193°
2026-05-08 14:18 62.32450 5.97227 4346 ft 91 kts 194°
2026-05-08 14:18 62.31845 5.96823 4395 ft 91 kts 194°
2026-05-08 14:19 62.31236 5.96416 4432 ft 91 kts 193°
2026-05-08 14:19 62.30651 5.96019 4478 ft 91 kts 194°
2026-05-08 14:19 62.30035 5.95604 4485 ft 94 kts 194°
2026-05-08 14:19 62.29401 5.95178 4487 ft 96 kts 194°
2026-05-08 14:20 62.28756 5.94742 4487 ft 96 kts 194°
2026-05-08 14:20 62.28120 5.94310 4486 ft 95 kts 194°
2026-05-08 14:20 62.27493 5.93884 4485 ft 94 kts 194°
2026-05-08 14:20 62.26875 5.93466 4485 ft 93 kts 194°
2026-05-08 14:21 62.26266 5.93063 4484 ft 93 kts 194°
2026-05-08 14:21 62.25646 5.92656 4485 ft 93 kts 194°
2026-05-08 14:21 62.25026 5.92249 4484 ft 92 kts 194°
2026-05-08 14:21 62.24410 5.91844 4484 ft 92 kts 194°
2026-05-08 14:22 62.23800 5.91442 4485 ft 93 kts 194°
2026-05-08 14:22 62.23186 5.91078 4485 ft 91 kts 187°
2026-05-08 14:22 62.22557 5.90913 4484 ft 91 kts 184°
2026-05-08 14:22 62.21942 5.90893 4485 ft 90 kts 175°
2026-05-08 14:23 62.21327 5.91162 4484 ft 90 kts 165°
2026-05-08 14:23 62.20755 5.91770 4483 ft 91 kts 155°
2026-05-08 14:23 62.20214 5.92474 4484 ft 92 kts 151°
2026-05-08 14:23 62.19723 5.93362 4485 ft 93 kts 145°
2026-05-08 14:24 62.19250 5.94315 4482 ft 94 kts 144°
2026-05-08 14:24 62.18775 5.95273 4484 ft 94 kts 144°
2026-05-08 14:24 62.18293 5.96229 4485 ft 94 kts 143°
2026-05-08 14:24 62.17809 5.97161 4487 ft 95 kts 144°
2026-05-08 14:25 62.17316 5.98112 4487 ft 96 kts 144°
2026-05-08 14:25 62.16817 5.99071 4486 ft 96 kts 143°
2026-05-08 14:25 62.16320 6.00021 4487 ft 96 kts 144°
2026-05-08 14:25 62.15817 6.00980 4486 ft 96 kts 144°
2026-05-08 14:26 62.15317 6.01938 4485 ft 96 kts 143°
2026-05-08 14:26 62.14824 6.02885 4485 ft 96 kts 144°
2026-05-08 14:26 62.14323 6.03844 4486 ft 95 kts 144°
2026-05-08 14:26 62.13833 6.04784 4486 ft 96 kts 143°
2026-05-08 14:27 62.13333 6.05727 4487 ft 96 kts 144°
2026-05-08 14:27 62.12829 6.06672 4488 ft 96 kts 144°
2026-05-08 14:27 62.12328 6.07611 4487 ft 96 kts 143°
2026-05-08 14:27 62.11829 6.08544 4487 ft 96 kts 143°
2026-05-08 14:28 62.11301 6.09410 4487 ft 95 kts 159°
2026-05-08 14:28 62.10666 6.09668 4488 ft 94 kts 179°
2026-05-08 14:28 62.10009 6.09587 4487 ft 95 kts 183°
2026-05-08 14:28 62.09352 6.09455 4516 ft 93 kts 184°
2026-05-08 14:29 62.08748 6.09323 4649 ft 83 kts 183°
2026-05-08 14:29 62.08182 6.09191 4741 ft 81 kts 183°
2026-05-08 14:29 62.07623 6.09056 4837 ft 81 kts 183°
2026-05-08 14:29 62.07080 6.08925 4940 ft 79 kts 184°
2026-05-08 14:30 62.06534 6.08801 5033 ft 80 kts 183°
2026-05-08 14:30 62.05985 6.08680 5128 ft 79 kts 183°
2026-05-08 14:30 62.05440 6.08562 5229 ft 78 kts 183°
2026-05-08 14:30 62.04903 6.08444 5326 ft 78 kts 183°
2026-05-08 14:31 62.04365 6.08322 5416 ft 78 kts 183°
2026-05-08 14:31 62.03828 6.08198 5505 ft 78 kts 183°
2026-05-08 14:31 62.03307 6.08074 5594 ft 77 kts 183°
2026-05-08 14:32 62.02242 6.07819 5764 ft 78 kts 183°
2026-05-08 14:32 62.01728 6.07692 5853 ft 77 kts 183°
2026-05-08 14:32 62.01182 6.07560 5939 ft 78 kts 183°
2026-05-08 14:32 62.00656 6.07436 6017 ft 78 kts 183°
2026-05-08 14:33 62.00133 6.07317 6103 ft 78 kts 183°
2026-05-08 14:33 61.99593 6.07198 6193 ft 77 kts 183°
2026-05-08 14:33 61.99059 6.07084 6270 ft 78 kts 183°
2026-05-08 14:33 61.98518 6.06967 6356 ft 78 kts 183°
2026-05-08 14:34 61.97973 6.06846 6431 ft 79 kts 183°
2026-05-08 14:34 61.97422 6.06724 6474 ft 83 kts 184°
2026-05-08 14:34 61.96816 6.06590 6471 ft 89 kts 184°
2026-05-08 14:34 61.96207 6.06457 6435 ft 89 kts 184°
2026-05-08 14:35 61.95594 6.06319 6373 ft 89 kts 184°
2026-05-08 14:35 61.94977 6.06173 6306 ft 89 kts 184°
2026-05-08 14:35 61.94376 6.06025 6211 ft 87 kts 185°
2026-05-08 14:35 61.93834 6.05383 6028 ft 95 kts 218°
2026-05-08 14:36 61.93411 6.04296 5856 ft 97 kts 223°
2026-05-08 14:36 61.93010 6.03175 5697 ft 96 kts 224°
2026-05-08 14:36 61.92627 6.02011 5519 ft 99 kts 232°
2026-05-08 14:36 61.92302 6.00704 5348 ft 100 kts 234°
2026-05-08 14:37 61.91983 5.99417 5187 ft 100 kts 234°
2026-05-08 14:37 61.91659 5.98105 5024 ft 100 kts 234°
2026-05-08 14:37 61.91338 5.96818 4867 ft 100 kts 234°
2026-05-08 14:37 61.91008 5.95514 4703 ft 100 kts 234°
2026-05-08 14:38 61.90678 5.94230 4554 ft 99 kts 234°
2026-05-08 14:38 61.90354 5.92945 4406 ft 98 kts 234°
2026-05-08 14:38 61.90040 5.91686 4255 ft 97 kts 233°
2026-05-08 14:38 61.89612 5.90809 4104 ft 89 kts 198°
2026-05-08 14:39 61.88989 5.90762 3950 ft 87 kts 169°
2026-05-08 14:39 61.88415 5.91114 3815 ft 88 kts 165°
2026-05-08 14:39 61.87908 5.91816 3668 ft 92 kts 138°
2026-05-08 14:39 61.87561 5.92995 3527 ft 94 kts 126°
2026-05-08 14:40 61.87265 5.94230 3382 ft 95 kts 124°
2026-05-08 14:40 61.86961 5.95469 3233 ft 95 kts 124°
2026-05-08 14:40 61.86655 5.96698 3092 ft 93 kts 124°
2026-05-08 14:40 61.86425 5.97964 2881 ft 91 kts 116°
2026-05-08 14:41 61.86259 5.99209 2635 ft 88 kts 115°
2026-05-08 14:41 61.86108 6.00444 2386 ft 86 kts 114°
2026-05-08 14:41 61.85948 6.01675 2100 ft 89 kts 114°
2026-05-08 14:41 61.85729 6.02873 1832 ft 85 kts 136°
2026-05-08 14:42 61.85271 6.03616 1581 ft 83 kts 153°
2026-05-08 14:42 61.84780 6.04240 1337 ft 82 kts 156°
2026-05-08 14:42 61.84336 6.04838 1196 ft 72 kts 150°
2026-05-08 14:42 61.83937 6.05409 1061 ft 69 kts 154°
2026-05-08 14:43 61.83535 6.05947 938 ft 66 kts 156°
2026-05-08 14:43 61.83128 6.06450 789 ft 68 kts 149°
2026-05-08 14:43 61.82833 6.07220 654 ft 72 kts 113°
2026-05-08 14:43 61.82886 6.08283 452 ft 76 kts 90°
2026-05-08 14:44 61.82949 6.09271 320 ft 69 kts 94°